• Join FlightAware (Why Join?)
  • Login
  • US Flag 
12:12PM EDT


 

Airport Tracker/Info


-or-


 

Live Flight TrackerFlight Track Log ✈ DAL3982 ✈ 30-Sep-2013 ✈ KMSP - KLNK

Flight Track Log - Related Links

Times and Time Zones

All times are in EDT time to prevent confusion due to time zone crossing. See the DAL3982 flight status page for this flight to view local times or setup timezone preferences in your user account.

Time Position Orientation Groundspeed Altitude Reporting Facility
EDT Latitude Longitude Course Direction KTS MPH feet Rate Location/Type
12:46PM 44.8500 -93.2333 187° South 145 167 2,200  Level Minneapolis TRACON
12:47PM 44.8242 -93.2381 187° South 164 189 2,900 1,620 Climbing Minneapolis Center
12:48PM 44.7656 -93.2861 210° Southwest 209 241 5,100 2,220 Climbing Minneapolis Center
12:49PM 44.7064 -93.3328 209° Southwest 245 282 7,600 2,280 Climbing Minneapolis Center
12:50PM 44.6450 -93.3811 209° Southwest 254 292 9,900 1,500 Climbing Minneapolis Center
12:51PM 44.5814 -93.4425 215° Southwest 283 326 10,800 1,440 Climbing Minneapolis Center
12:52PM 44.4944 -93.5256 214° Southwest 313 360 12,900 1,860 Climbing Minneapolis Center
12:53PM 44.4203 -93.5958 214° Southwest 324 373 14,700 1,380 Climbing Minneapolis Center
12:54PM 44.3431 -93.6703 215° Southwest 337 388 15,800 1,080 Climbing Minneapolis Center
12:55PM 44.2625 -93.7464 214° Southwest 349 402 17,000 1,140 Climbing Minneapolis Center
12:56PM 44.1803 -93.8228 214° Southwest 355 409 18,200 1,080 Climbing Minneapolis Center
12:57PM 44.0992 -93.9000 214° Southwest 354 407 19,300 1,020 Climbing Minneapolis Center
12:58PM 44.0006 -93.9936 214° Southwest 358 412 20,400 900 Climbing Minneapolis Center
01:00PM 43.9164 -94.0714 214° Southwest 362 417 21,200 720 Climbing Minneapolis Center
01:01PM 43.8294 -94.1517 214° Southwest 373 429 21,900 660 Climbing Minneapolis Center
01:02PM 43.7422 -94.2339 214° Southwest 377 434 22,600 720 Climbing Minneapolis Center
01:03PM 43.6394 -94.3278 213° Southwest 383 441 23,500 720 Climbing Minneapolis Center
01:04PM 43.5500 -94.4100 214° Southwest 386 444 24,200 660 Climbing Minneapolis Center
01:05PM 43.4597 -94.4925 214° Southwest 388 447 24,900 660 Climbing Minneapolis Center
01:06PM 43.3694 -94.5747 214° Southwest 389 448 25,600 660 Climbing Minneapolis Center
01:07PM 43.2786 -94.6564 213° Southwest 389 448 26,300 660 Climbing Minneapolis Center
01:08PM 43.1906 -94.7375 214° Southwest 384 442 27,000 720 Climbing Minneapolis Center
01:09PM 43.0825 -94.8336 213° Southwest 385 443 27,800 480 Climbing Minneapolis Center
01:10PM 42.9925 -94.9153 214° Southwest 387 445 28,000 60 Climbing Minneapolis Center
01:11PM 42.9003 -94.9986 214° Southwest 395 455 28,000  Level Minneapolis Center
01:12PM 42.8061 -95.0811 213° Southwest 400 460 28,000  Level Minneapolis Center
01:13PM 42.7150 -95.1636 214° Southwest 401 461 28,000  Level Minneapolis Center
01:14PM 42.6203 -95.2456 212° Southwest 402 463 28,000  Level Minneapolis Center
01:15PM 42.5064 -95.3444 213° Southwest 405 466 28,000  Level Minneapolis Center
01:16PM 42.4114 -95.4325 214° Southwest 410 472 28,000  Level Minneapolis Center
01:17PM 42.3161 -95.5156 213° Southwest 409 471 28,000  Level Minneapolis Center
01:18PM 42.2200 -95.5992 213° Southwest 410 472 28,000  Level Minneapolis Center
01:19PM 42.1244 -95.6808 212° Southwest 407 468 28,000 -300 Level Minneapolis Center
01:20PM 42.0275 -95.7653 213° Southwest 413 475 27,500 -1,560 Descending Minneapolis Center
01:21PM 41.9133 -95.8608 212° Southwest 407 468 24,800 -2,400 Descending Minneapolis Center
01:22PM 41.8217 -95.9425 214° Southwest 401 461 22,600 -2,160 Descending Minneapolis Center
01:23PM 41.7331 -96.0186 213° Southwest 387 445 20,400 -2,340 Descending Minneapolis Center
01:24PM 41.6933 -96.0631 220° Southwest 365 420 19,400 -2,460 Descending Minneapolis Center
01:24PM 41.6439 -96.0942 205° Southwest 364 419 17,900 -2,340 Descending Minneapolis Center
01:25PM 41.6039 -96.1372 219° Southwest 351 404 16,800 -1,980 Descending Minneapolis Center
01:25PM 41.5689 -96.1581 204° Southwest 351 404 15,900 -2,220 Descending Minneapolis Center
01:26PM 41.5164 -96.2083 216° Southwest 343 395 14,600 -2,520 Descending Minneapolis Center
01:26PM 41.4736 -96.2394 209° Southwest 345 397 13,300 -2,100 Descending Minneapolis Center
01:27PM 41.4308 -96.2792 215° Southwest 336 387 12,300 -1,800 Descending Minneapolis Center
01:27PM 41.3975 -96.3039 209° Southwest 334 384 11,500 -1,200 Descending Minneapolis Center
01:28PM 41.3472 -96.3467 213° Southwest 289 333 11,000 -540 Descending Minneapolis Center
01:28PM 41.3297 -96.3617 213° Southwest 305 351 11,000 -360 Level Minneapolis Center
01:29PM 41.2875 -96.3947 210° Southwest 279 321 10,700 -1,200 Descending Minneapolis Center
01:30PM 41.2681 -96.4178 222° Southwest 281 323 9,800 -1,920 Descending Minneapolis Center
01:30PM 41.2364 -96.4500 217° Southwest 259 298 9,000 -1,800 Descending Minneapolis Center
01:31PM 41.2133 -96.4783 223° Southwest 263 303 8,000 -1,680 Descending Minneapolis Center
01:31PM 41.1814 -96.5058 213° Southwest 255 293 7,300 -1,560 Descending Minneapolis Center
01:32PM 41.1472 -96.5464 222° Southwest 254 292 6,400 -1,260 Descending Minneapolis Center
01:32PM 41.1183 -96.5706 212° Southwest 241 277 5,900 -1,200 Descending Minneapolis Center
01:33PM 41.0967 -96.6008 226° Southwest 243 280 5,200 -1,200 Descending Minneapolis Center
01:33PM 41.0692 -96.6228 211° Southwest 228 262 4,700 -780 Descending Minneapolis Center
01:34PM 41.0528 -96.6594 239° Southwest 234 269 4,400 -540 Descending Minneapolis Center
01:34PM 41.0286 -96.6794 212° Southwest 208 239 4,200 -600 Descending Minneapolis Center
01:35PM 41.0156 -96.7144 244° Southwest 219 252 3,800 -720 Descending Minneapolis Center
01:35PM 40.9919 -96.7303 207° Southwest 194 223 3,500 -600 Descending Minneapolis Center
01:36PM 40.9794 -96.7536 235° Southwest 196 226 3,200 -540 Descending Minneapolis Center
01:36PM 40.9494 -96.7567 184° South 156 180 3,000 -480 Descending Minneapolis Center
01:37PM 40.9342 -96.7606 191° South 182 209 2,700 -600 Descending Minneapolis Center
01:37PM 40.9078 -96.7581 176° South 140 161 2,400 -780 Descending Minneapolis Center
01:38PM 40.8764 -96.7558 177° South 129 148 1,800 -420 Descending Minneapolis Center
01:39PM 40.8547 -96.7631 194° South 148 170 1,700 -120 Descending Minneapolis Center